LJI weather

Nueva Granada Airport
La Jagua De Ibirico, César Department, Colombia

Public forecast

Using degrees Celsius for public forecast. Weather courtesy of forecast.io.

Closest aviation weather report (METAR) to Nueva Granada Airport

Report is more than 2 hours old.

Closest report is Alfonso López Pumarejo Airport, 51.9 nm (96.2 km) N. Retrieved 2019/10/15 03:00 UTC (4 hours ago):

SKVP 150300Z 06006KT 9999 FEW1015 BKN200 27/24 A2995

Closest aviation forecast (TAF) to Nueva Granada Airport

Forecast is more than 12 hours old.

Closest forecast is Villa del Rosario Airport, 77.4 nm (143.3 km) NE. Retrieved 2019/09/09 18:00 UTC (1 month ago):

TAF SVVS 091700Z 0918/1018 18004KT 9999 BKN016 TX30/0919Z TN22/1008Z TEMPO 0919/0921 9000 DZ TEMPO 0922/1002 24005KT 9999 SCT016 SCT150